Time;durP1;ratioP1;P1;durP2;ratioP2;P2;SDS_P1;SDS_P2;PMS_P1;PMS_P2;Temp;Humidity;BMP_temperature;BMP_pressure;BME280_temperature;BME280_humidity;BME280_pressure;Samples;Min_cycle;Max_cycle;Signal;HPM_P1;HPM_P2
2023/06/21 00:00:41;;;;;;;9.48;5.70;;;;;;;;;;5095854;28;20028;-32
2023/06/21 00:03:07;;;;;;;6.72;5.00;;;;;;;;;;5095257;28;20047;-26
2023/06/21 00:05:33;;;;;;;8.40;5.60;;;;;;;;;;5095476;28;20359;-28
2023/06/21 00:07:59;;;;;;;9.05;5.53;;;;;;;;;;5095374;28;20031;-31
2023/06/21 00:10:29;;;;;;;6.82;5.30;;;;;;;;;;5095658;28;20020;-31
2023/06/21 00:12:55;;;;;;;8.70;5.38;;;;;;;;;;5095258;28;20102;-32
2023/06/21 00:15:22;;;;;;;9.55;5.35;;;;;;;;;;5095587;28;20447;-31
2023/06/21 00:17:49;;;;;;;8.95;5.07;;;;;;;;;;5095266;28;20036;-30
2023/06/21 00:20:15;;;;;;;6.15;5.32;;;;;;;;;;5095265;28;20101;-29
2023/06/21 00:22:45;;;;;;;4.70;4.30;;;;;;;;;;5095371;28;20031;-32
2023/06/21 00:25:12;;;;;;;7.13;5.33;;;;;;;;;;5095131;28;20024;-29
2023/06/21 00:27:39;;;;;;;7.57;5.47;;;;;;;;;;5095058;28;20042;-28
2023/06/21 00:30:07;;;;;;;9.38;5.18;;;;;;;;;;5095303;28;20343;-31
2023/06/21 00:32:33;;;;;;;5.68;4.63;;;;;;;;;;5095209;28;20032;-28
2023/06/21 00:34:59;;;;;;;7.95;4.40;;;;;;;;;;5094991;28;20122;-30
2023/06/21 00:37:28;;;;;;;7.35;5.30;;;;;;;;;;5094570;28;20344;-29
2023/06/21 00:39:54;;;;;;;10.48;5.68;;;;;;;;;;5094918;28;20063;-30
2023/06/21 00:42:20;;;;;;;5.75;5.15;;;;;;;;;;5095070;28;20024;-31
2023/06/21 00:44:47;;;;;;;5.50;4.38;;;;;;;;;;5077081;28;20039;-31
2023/06/21 00:47:13;;;;;;;8.20;4.85;;;;;;;;;;5095041;28;20081;-30
2023/06/21 00:49:39;;;;;;;7.93;5.18;;;;;;;;;;5094822;28;20016;-30
2023/06/21 00:52:05;;;;;;;5.68;5.13;;;;;;;;;;5095263;28;20047;-31
2023/06/21 00:54:35;;;;;;;7.28;4.60;;;;;;;;;;5060437;28;20362;-28
2023/06/21 00:57:02;;;;;;;11.05;5.50;;;;;;;;;;5095079;28;20457;-32
2023/06/21 00:59:28;;;;;;;6.32;4.90;;;;;;;;;;5094756;28;20024;-30
2023/06/21 01:01:58;;;;;;;10.35;6.47;;;;;;;;;;5094626;28;20079;-30
2023/06/21 01:04:24;;;;;;;8.48;5.50;;;;;;;;;;5094444;28;20048;-27
2023/06/21 01:06:59;;;;;;;5.78;5.20;;;;;;;;;;5095106;28;20051;-33
2023/06/21 01:09:34;;;;;;;4.90;4.50;;;;;;;;;;5095187;28;20035;-30
2023/06/21 01:12:23;;;;;;;5.72;5.15;;;;;;;;;;5094745;28;20328;-30
2023/06/21 01:14:55;;;;;;;6.65;4.82;;;;;;;;;;5048338;28;20047;-29
2023/06/21 01:17:21;;;;;;;5.03;4.53;;;;;;;;;;5094845;28;20032;-30
2023/06/21 01:19:53;;;;;;;5.60;4.30;;;;;;;;;;5094539;28;20027;-31
2023/06/21 01:22:23;;;;;;;8.05;5.28;;;;;;;;;;5094643;28;20024;-29
2023/06/21 01:24:58;;;;;;;5.97;5.00;;;;;;;;;;5094508;28;20055;-29
2023/06/21 01:27:27;;;;;;;5.35;4.68;;;;;;;;;;5094372;28;20107;-29
2023/06/21 01:29:55;;;;;;;6.18;5.30;;;;;;;;;;5094393;28;20104;-29
2023/06/21 01:32:22;;;;;;;4.57;4.18;;;;;;;;;;5094398;28;20450;-28
2023/06/21 01:34:48;;;;;;;6.38;5.35;;;;;;;;;;5094387;28;20020;-29
2023/06/21 01:37:14;;;;;;;5.65;4.93;;;;;;;;;;5094395;28;20024;-27
2023/06/21 01:39:41;;;;;;;5.05;4.65;;;;;;;;;;5094598;28;20351;-29
2023/06/21 01:42:07;;;;;;;4.95;4.53;;;;;;;;;;5094170;28;20039;-30
2023/06/21 01:44:34;;;;;;;4.93;4.43;;;;;;;;;;5094330;28;20451;-30
2023/06/21 01:47:00;;;;;;;7.03;4.43;;;;;;;;;;5094176;28;20036;-30
2023/06/21 01:49:27;;;;;;;6.07;4.93;;;;;;;;;;5078547;28;20095;-30
2023/06/21 01:51:53;;;;;;;5.70;5.20;;;;;;;;;;5098241;28;20044;-28
2023/06/21 01:54:20;;;;;;;7.38;4.85;;;;;;;;;;5098796;28;20024;-31
2023/06/21 01:56:47;;;;;;;7.00;5.25;;;;;;;;;;5098490;28;20028;-29
2023/06/21 01:59:14;;;;;;;5.07;4.68;;;;;;;;;;5097956;28;20034;-29
2023/06/21 02:01:42;;;;;;;7.22;5.00;;;;;;;;;;5097789;28;20028;-30
2023/06/21 02:04:08;;;;;;;5.20;4.80;;;;;;;;;;5097592;28;20047;-29
2023/06/21 02:06:35;;;;;;;7.45;5.05;;;;;;;;;;5097794;28;20359;-29
2023/06/21 02:09:05;;;;;;;4.97;4.57;;;;;;;;;;5097646;28;20089;-30
2023/06/21 02:11:32;;;;;;;6.27;5.67;;;;;;;;;;5097673;28;20028;-31
2023/06/21 02:14:00;;;;;;;4.97;4.57;;;;;;;;;;5097474;28;20139;-32
2023/06/21 02:16:27;;;;;;;5.15;4.63;;;;;;;;;;5079712;28;20039;-31
2023/06/21 02:18:53;;;;;;;5.90;5.30;;;;;;;;;;5097817;28;20032;-31
2023/06/21 02:21:25;;;;;;;5.20;4.78;;;;;;;;;;5097511;28;20046;-28
2023/06/21 02:23:51;;;;;;;5.43;4.95;;;;;;;;;;5097710;28;20063;-29
2023/06/21 02:26:18;;;;;;;6.00;4.70;;;;;;;;;;5097389;28;20134;-31
2023/06/21 02:28:44;;;;;;;6.45;4.60;;;;;;;;;;5097344;28;20386;-32
2023/06/21 02:31:10;;;;;;;5.40;4.80;;;;;;;;;;5097625;28;20111;-31
2023/06/21 02:33:37;;;;;;;7.40;4.88;;;;;;;;;;5097271;28;20145;-29
2023/06/21 02:36:03;;;;;;;5.15;4.65;;;;;;;;;;5097144;28;20020;-31
2023/06/21 02:38:31;;;;;;;8.90;5.53;;;;;;;;;;5062814;28;20085;-27
2023/06/21 02:40:58;;;;;;;8.23;4.80;;;;;;;;;;5097028;28;20047;-30
2023/06/21 02:43:24;;;;;;;5.22;4.82;;;;;;;;;;5097343;28;20063;-32
2023/06/21 02:45:50;;;;;;;7.50;5.53;;;;;;;;;;5097336;28;20328;-32
2023/06/21 02:48:16;;;;;;;4.70;4.30;;;;;;;;;;5079331;28;20055;-30
2023/06/21 02:50:42;;;;;;;5.05;4.55;;;;;;;;;;5096942;28;20093;-28
2023/06/21 02:53:08;;;;;;;5.30;4.85;;;;;;;;;;5096882;28;20443;-26
2023/06/21 02:55:34;;;;;;;5.78;4.88;;;;;;;;;;5096870;28;20031;-31
2023/06/21 02:58:00;;;;;;;4.45;4.05;;;;;;;;;;5097360;28;20020;-28
2023/06/21 03:00:31;;;;;;;5.50;5.00;;;;;;;;;;5096657;28;20148;-29
2023/06/21 03:03:00;;;;;;;8.82;4.93;;;;;;;;;;5096644;28;20051;-31
2023/06/21 03:05:37;;;;;;;5.18;4.72;;;;;;;;;;5096944;28;20028;-30
2023/06/21 03:08:09;;;;;;;5.05;4.40;;;;;;;;;;5078721;28;20036;-30
2023/06/21 03:10:36;;;;;;;6.13;5.05;;;;;;;;;;5096563;28;20024;-29
2023/06/21 03:13:03;;;;;;;5.65;5.10;;;;;;;;;;5096667;28;20028;-26
2023/06/21 03:15:29;;;;;;;5.03;4.65;;;;;;;;;;5096456;28;20031;-30
2023/06/21 03:17:55;;;;;;;5.40;4.90;;;;;;;;;;5096426;28;20051;-30
2023/06/21 03:20:24;;;;;;;5.07;4.68;;;;;;;;;;5096283;28;20028;-30
2023/06/21 03:22:51;;;;;;;6.00;4.75;;;;;;;;;;5096513;28;20039;-26
2023/06/21 03:25:17;;;;;;;5.60;4.20;;;;;;;;;;5096304;28;20028;-30
2023/06/21 03:27:43;;;;;;;6.15;5.43;;;;;;;;;;5096165;28;20024;-28
2023/06/21 03:30:11;;;;;;;6.63;4.78;;;;;;;;;;5096431;28;20020;-30
2023/06/21 03:32:38;;;;;;;5.82;4.57;;;;;;;;;;5096357;28;20028;-29
2023/06/21 03:35:04;;;;;;;6.85;5.03;;;;;;;;;;5096636;28;20027;-29
2023/06/21 03:37:30;;;;;;;9.25;4.50;;;;;;;;;;5096548;28;20028;-30
2023/06/21 03:39:57;;;;;;;6.30;4.45;;;;;;;;;;5095972;28;20107;-31
2023/06/21 03:42:23;;;;;;;7.55;5.75;;;;;;;;;;5096343;28;20059;-28
2023/06/21 03:44:49;;;;;;;6.00;4.80;;;;;;;;;;5095879;28;20035;-30
2023/06/21 03:47:15;;;;;;;7.47;5.20;;;;;;;;;;5095761;28;20024;-29
2023/06/21 03:49:41;;;;;;;5.65;5.03;;;;;;;;;;5096031;28;20354;-29
2023/06/21 03:52:07;;;;;;;7.45;4.72;;;;;;;;;;5095717;28;20054;-29
2023/06/21 03:54:34;;;;;;;6.25;4.60;;;;;;;;;;5077840;28;20028;-28
2023/06/21 03:57:00;;;;;;;12.70;5.70;;;;;;;;;;5095895;28;20024;-28
2023/06/21 03:59:26;;;;;;;5.90;5.30;;;;;;;;;;5095824;28;20343;-30
2023/06/21 04:01:52;;;;;;;7.35;5.55;;;;;;;;;;5095719;28;20016;-29
2023/06/21 04:04:18;;;;;;;14.35;5.90;;;;;;;;;;5095312;28;20036;-30
2023/06/21 04:06:44;;;;;;;9.32;6.38;;;;;;;;;;5095364;28;20027;-29
2023/06/21 04:09:10;;;;;;;6.45;5.25;;;;;;;;;;5095424;28;20055;-31
2023/06/21 04:11:37;;;;;;;7.15;5.20;;;;;;;;;;5094816;28;20359;-30
2023/06/21 04:14:03;;;;;;;5.80;5.20;;;;;;;;;;5095269;28;20054;-32
2023/06/21 04:16:29;;;;;;;6.82;5.13;;;;;;;;;;5077118;28;20024;-30
2023/06/21 04:18:55;;;;;;;7.97;6.15;;;;;;;;;;5095198;28;20157;-28
2023/06/21 04:21:21;;;;;;;8.77;4.68;;;;;;;;;;5095134;28;20031;-31
2023/06/21 04:23:48;;;;;;;8.80;4.70;;;;;;;;;;5095729;28;20035;-29
2023/06/21 04:26:14;;;;;;;7.07;4.47;;;;;;;;;;5095430;28;20359;-30
2023/06/21 04:28:40;;;;;;;7.18;6.47;;;;;;;;;;5095036;28;20031;-31
2023/06/21 04:31:06;;;;;;;4.80;4.40;;;;;;;;;;5077348;28;20016;-30
2023/06/21 04:33:34;;;;;;;8.38;4.95;;;;;;;;;;5095469;28;20441;-31
2023/06/21 04:36:00;;;;;;;7.50;4.60;;;;;;;;;;5094750;28;20032;-30
2023/06/21 04:38:26;;;;;;;6.90;5.13;;;;;;;;;;5094542;28;20024;-30
2023/06/21 04:40:53;;;;;;;7.65;4.43;;;;;;;;;;5095054;28;20057;-27
2023/06/21 04:43:21;;;;;;;5.40;4.90;;;;;;;;;;5094653;28;20032;-30
2023/06/21 04:45:48;;;;;;;6.60;4.50;;;;;;;;;;5094596;28;20107;-31
2023/06/21 04:48:14;;;;;;;10.13;5.95;;;;;;;;;;5094637;28;20036;-29
2023/06/21 04:50:45;;;;;;;6.53;4.90;;;;;;;;;;5095045;28;20347;-30
2023/06/21 04:53:11;;;;;;;6.30;5.10;;;;;;;;;;5094808;28;20031;-28
2023/06/21 04:55:42;;;;;;;5.65;4.88;;;;;;;;;;5094806;28;20261;-28
2023/06/21 04:58:09;;;;;;;11.77;4.65;;;;;;;;;;5094927;28;20105;-29
2023/06/21 05:00:36;;;;;;;8.18;5.20;;;;;;;;;;5094667;28;20085;-29
2023/06/21 05:03:03;;;;;;;6.35;4.93;;;;;;;;;;5094070;28;20048;-27
2023/06/21 05:05:29;;;;;;;23.15;5.28;;;;;;;;;;5094471;28;20051;-27
2023/06/21 05:07:55;;;;;;;7.07;5.28;;;;;;;;;;5094025;28;20028;-30
2023/06/21 05:10:21;;;;;;;9.18;5.10;;;;;;;;;;5094089;28;20031;-31
2023/06/21 05:12:47;;;;;;;6.03;5.28;;;;;;;;;;5094626;28;20032;-29
2023/06/21 05:15:13;;;;;;;4.25;3.88;;;;;;;;;;5094576;28;20035;-31
2023/06/21 05:17:40;;;;;;;10.57;4.65;;;;;;;;;;5076449;28;20428;-29
2023/06/21 05:20:08;;;;;;;9.45;5.07;;;;;;;;;;5094482;28;20044;-32
2023/06/21 05:22:34;;;;;;;9.13;4.70;;;;;;;;;;5094535;28;20016;-29
2023/06/21 05:25:02;;;;;;;11.88;5.32;;;;;;;;;;5098178;28;20455;-32
2023/06/21 05:27:28;;;;;;;12.93;6.05;;;;;;;;;;5098286;28;20031;-31
2023/06/21 05:29:54;;;;;;;11.05;5.15;;;;;;;;;;5080303;28;20025;-29
2023/06/21 05:32:21;;;;;;;11.10;4.53;;;;;;;;;;5097918;28;20024;-30
2023/06/21 05:34:47;;;;;;;10.27;4.60;;;;;;;;;;5098092;28;20024;-31
2023/06/21 05:37:13;;;;;;;7.68;5.00;;;;;;;;;;5098577;28;20036;-29
2023/06/21 05:39:39;;;;;;;6.32;5.10;;;;;;;;;;5098723;28;20027;-28
2023/06/21 05:42:05;;;;;;;7.13;4.75;;;;;;;;;;5098012;28;20035;-31
2023/06/21 05:44:32;;;;;;;14.65;5.47;;;;;;;;;;5098080;28;20032;-32
2023/06/21 05:46:58;;;;;;;17.27;5.55;;;;;;;;;;5080058;28;20031;-31
2023/06/21 05:49:24;;;;;;;11.35;5.05;;;;;;;;;;5098179;28;20024;-29
2023/06/21 05:51:50;;;;;;;10.77;6.45;;;;;;;;;;5097647;28;20084;-29
2023/06/21 05:54:16;;;;;;;10.20;5.55;;;;;;;;;;5097728;28;20409;-30
2023/06/21 05:56:42;;;;;;;7.38;4.75;;;;;;;;;;5097970;28;20357;-31
2023/06/21 05:59:09;;;;;;;7.15;4.82;;;;;;;;;;5097699;28;20355;-28
2023/06/21 06:01:35;;;;;;;17.17;5.45;;;;;;;;;;5097242;28;20100;-30
2023/06/21 06:04:01;;;;;;;10.32;5.10;;;;;;;;;;5097145;28;20047;-31
2023/06/21 06:06:40;;;;;;;11.00;6.32;;;;;;;;;;5079447;28;20027;-27
2023/06/21 06:09:09;;;;;;;7.70;5.13;;;;;;;;;;5097484;28;20395;-29
2023/06/21 06:11:35;;;;;;;14.30;5.43;;;;;;;;;;5079393;28;20329;-28
2023/06/21 06:14:02;;;;;;;8.00;5.57;;;;;;;;;;5097195;28;20435;-31
2023/06/21 06:16:28;;;;;;;10.90;4.68;;;;;;;;;;5097059;28;20154;-32
2023/06/21 06:18:55;;;;;;;6.68;4.95;;;;;;;;;;5097332;28;20480;-30
2023/06/21 06:21:21;;;;;;;7.53;4.78;;;;;;;;;;5097123;28;20028;-32
2023/06/21 06:23:49;;;;;;;7.05;4.55;;;;;;;;;;5097298;28;20460;-31
2023/06/21 06:26:15;;;;;;;5.60;5.10;;;;;;;;;;5097426;28;20024;-28
2023/06/21 06:28:42;;;;;;;13.07;4.90;;;;;;;;;;5097066;28;20035;-31
2023/06/21 06:31:08;;;;;;;9.63;4.20;;;;;;;;;;5097163;28;20016;-28
2023/06/21 06:33:34;;;;;;;8.13;4.57;;;;;;;;;;5096814;28;20051;-29
2023/06/21 06:36:00;;;;;;;9.02;4.57;;;;;;;;;;5096473;28;20024;-30
2023/06/21 06:38:26;;;;;;;7.85;4.97;;;;;;;;;;5097467;28;20107;-31
2023/06/21 06:40:52;;;;;;;8.32;4.63;;;;;;;;;;5097104;28;20028;-31
2023/06/21 06:43:20;;;;;;;5.78;3.70;;;;;;;;;;5078848;28;20509;-32
2023/06/21 06:45:46;;;;;;;5.03;4.47;;;;;;;;;;5095368;28;20040;-28
2023/06/21 06:48:12;;;;;;;10.05;5.00;;;;;;;;;;5096826;28;20032;-28
2023/06/21 06:50:39;;;;;;;8.63;4.82;;;;;;;;;;5096638;28;20024;-31
2023/06/21 06:53:06;;;;;;;6.18;5.18;;;;;;;;;;5096783;28;20020;-29
2023/06/21 06:55:32;;;;;;;14.48;4.38;;;;;;;;;;5096525;28;20024;-32
2023/06/21 06:57:58;;;;;;;7.07;4.75;;;;;;;;;;5096841;28;20024;-29
2023/06/21 07:00:24;;;;;;;7.35;4.93;;;;;;;;;;5096769;28;20039;-30
2023/06/21 07:02:56;;;;;;;16.77;5.57;;;;;;;;;;5096152;28;20040;-30
2023/06/21 07:05:23;;;;;;;8.57;5.45;;;;;;;;;;5096535;28;20439;-31
2023/06/21 07:07:49;;;;;;;6.47;4.03;;;;;;;;;;5096438;28;20119;-27
2023/06/21 07:10:15;;;;;;;6.72;4.70;;;;;;;;;;5078418;28;20046;-28
2023/06/21 07:12:42;;;;;;;6.93;4.65;;;;;;;;;;5096649;28;20016;-30
2023/06/21 07:15:08;;;;;;;11.95;5.40;;;;;;;;;;5096485;28;20050;-27
2023/06/21 07:17:34;;;;;;;11.60;5.25;;;;;;;;;;5096373;28;20028;-30
2023/06/21 07:20:00;;;;;;;6.25;4.82;;;;;;;;;;5096113;28;20020;-28
2023/06/21 07:22:27;;;;;;;6.93;4.70;;;;;;;;;;5095924;28;20024;-31
2023/06/21 07:24:53;;;;;;;10.07;4.95;;;;;;;;;;5096013;28;20050;-27
2023/06/21 07:27:19;;;;;;;11.75;4.72;;;;;;;;;;5096180;28;20115;-29
2023/06/21 07:29:45;;;;;;;6.20;4.43;;;;;;;;;;5095866;28;20021;-31
2023/06/21 07:32:12;;;;;;;9.73;4.55;;;;;;;;;;5096291;28;20016;-31
2023/06/21 07:34:38;;;;;;;5.53;4.50;;;;;;;;;;5095979;28;20024;-29
2023/06/21 07:37:04;;;;;;;6.43;4.25;;;;;;;;;;5095711;28;20051;-32
2023/06/21 07:39:30;;;;;;;11.95;5.40;;;;;;;;;;5095711;28;20055;-30
2023/06/21 07:42:01;;;;;;;10.05;5.38;;;;;;;;;;5095477;28;20024;-30
2023/06/21 07:44:27;;;;;;;12.07;4.63;;;;;;;;;;5095513;28;20134;-30
2023/06/21 07:46:53;;;;;;;5.50;4.82;;;;;;;;;;5094896;28;20028;-26
2023/06/21 07:49:19;;;;;;;7.10;4.53;;;;;;;;;;5077595;28;20016;-30
2023/06/21 07:51:45;;;;;;;6.75;5.05;;;;;;;;;;5095771;28;20347;-31
2023/06/21 07:54:11;;;;;;;5.78;4.68;;;;;;;;;;5095399;28;20028;-28
2023/06/21 07:56:37;;;;;;;5.53;4.90;;;;;;;;;;5095533;28;20024;-31
2023/06/21 07:59:04;;;;;;;6.03;4.65;;;;;;;;;;5095395;28;20085;-29
2023/06/21 08:01:30;;;;;;;13.38;4.78;;;;;;;;;;5077328;28;20086;-28
2023/06/21 08:03:57;;;;;;;6.25;4.80;;;;;;;;;;5094947;28;20059;-30
2023/06/21 08:06:24;;;;;;;10.43;4.68;;;;;;;;;;5095085;28;20036;-32
2023/06/21 08:08:50;;;;;;;11.18;5.32;;;;;;;;;;5095012;28;20023;-29
2023/06/21 08:11:16;;;;;;;9.43;5.60;;;;;;;;;;5095125;28;20021;-28
2023/06/21 08:13:42;;;;;;;8.30;5.07;;;;;;;;;;5095543;28;20058;-28
2023/06/21 08:16:08;;;;;;;9.98;5.05;;;;;;;;;;5095637;28;20062;-29
2023/06/21 08:18:35;;;;;;;8.63;5.40;;;;;;;;;;5095588;28;20128;-32
2023/06/21 08:21:01;;;;;;;9.45;5.25;;;;;;;;;;5094906;28;20028;-27
2023/06/21 08:23:27;;;;;;;9.35;5.20;;;;;;;;;;5095011;28;20588;-30
2023/06/21 08:25:53;;;;;;;7.82;5.18;;;;;;;;;;5094888;28;20028;-32
2023/06/21 08:28:19;;;;;;;10.73;5.78;;;;;;;;;;5076896;28;20365;-26
2023/06/21 08:30:46;;;;;;;8.73;6.05;;;;;;;;;;5094794;28;20103;-26
2023/06/21 08:33:12;;;;;;;12.48;5.18;;;;;;;;;;5094764;28;20085;-31
2023/06/21 08:35:38;;;;;;;12.15;6.28;;;;;;;;;;5094677;28;20024;-28
2023/06/21 08:38:04;;;;;;;12.02;4.93;;;;;;;;;;5094872;28;20021;-29
2023/06/21 08:40:32;;;;;;;7.88;4.60;;;;;;;;;;5094436;28;20047;-30
2023/06/21 08:42:58;;;;;;;8.73;5.07;;;;;;;;;;5094946;28;20020;-31
2023/06/21 08:45:24;;;;;;;21.58;5.20;;;;;;;;;;5094797;28;20032;-27
2023/06/21 08:47:51;;;;;;;11.57;6.50;;;;;;;;;;5094766;28;20024;-30
2023/06/21 08:50:21;;;;;;;9.48;5.40;;;;;;;;;;5094736;28;20362;-27
2023/06/21 08:52:48;;;;;;;13.95;5.60;;;;;;;;;;5076987;28;20114;-30
2023/06/21 08:55:18;;;;;;;7.18;4.60;;;;;;;;;;5094790;28;20024;-31
2023/06/21 08:58:05;;;;;;;8.95;4.95;;;;;;;;;;5094809;28;20031;-29
2023/06/21 09:00:37;;;;;;;10.32;5.40;;;;;;;;;;5095112;28;20055;-30
2023/06/21 09:03:09;;;;;;;15.00;5.72;;;;;;;;;;5094316;28;20104;-31
2023/06/21 09:05:35;;;;;;;7.15;6.28;;;;;;;;;;5094857;28;20405;-28
2023/06/21 09:08:02;;;;;;;9.85;5.55;;;;;;;;;;5094673;28;20349;-27
2023/06/21 09:10:29;;;;;;;7.28;5.80;;;;;;;;;;5094768;28;20370;-29
2023/06/21 09:12:57;;;;;;;6.03;5.40;;;;;;;;;;5094471;28;20103;-31
2023/06/21 09:15:24;;;;;;;12.05;5.13;;;;;;;;;;5094481;28;20028;-30
2023/06/21 09:17:51;;;;;;;6.85;5.68;;;;;;;;;;5094518;28;20359;-29
2023/06/21 09:20:17;;;;;;;22.70;6.22;;;;;;;;;;5094662;28;20093;-28
2023/06/21 09:22:46;;;;;;;7.32;4.70;;;;;;;;;;5076785;28;20028;-28
2023/06/21 09:25:12;;;;;;;9.88;5.18;;;;;;;;;;5076550;28;20110;-29
2023/06/21 09:27:39;;;;;;;7.50;5.68;;;;;;;;;;5094225;28;20020;-31
2023/06/21 09:30:05;;;;;;;11.85;6.97;;;;;;;;;;5094343;28;20020;-27
2023/06/21 09:32:32;;;;;;;8.77;5.60;;;;;;;;;;5076362;28;20040;-30
2023/06/21 09:34:58;;;;;;;8.65;6.72;;;;;;;;;;5094172;28;20027;-26
2023/06/21 09:37:31;;;;;;;6.45;5.82;;;;;;;;;;5076407;28;20055;-28
2023/06/21 09:39:58;;;;;;;6.63;5.93;;;;;;;;;;5094336;28;20031;-30
2023/06/21 09:42:26;;;;;;;11.02;5.35;;;;;;;;;;5094508;28;20074;-30
2023/06/21 09:44:53;;;;;;;15.00;5.40;;;;;;;;;;5094324;28;20369;-27
2023/06/21 09:47:19;;;;;;;7.45;6.57;;;;;;;;;;5094067;28;20020;-29
2023/06/21 09:49:46;;;;;;;8.07;5.38;;;;;;;;;;5094294;28;20028;-27
2023/06/21 09:52:14;;;;;;;8.40;5.43;;;;;;;;;;5076704;28;20024;-30
2023/06/21 09:54:43;;;;;;;9.05;5.95;;;;;;;;;;5094621;28;20016;-26
2023/06/21 09:57:09;;;;;;;8.70;5.72;;;;;;;;;;5094271;28;20095;-29
2023/06/21 09:59:39;;;;;;;7.97;5.50;;;;;;;;;;5093986;28;20024;-29
2023/06/21 10:02:06;;;;;;;11.23;5.88;;;;;;;;;;5093884;28;20028;-29
2023/06/21 10:04:40;;;;;;;12.88;6.20;;;;;;;;;;5093407;28;20048;-29
2023/06/21 10:07:06;;;;;;;9.48;5.60;;;;;;;;;;5093882;28;20182;-32
2023/06/21 10:09:38;;;;;;;11.63;6.30;;;;;;;;;;5094004;28;20032;-26
2023/06/21 10:12:05;;;;;;;8.80;5.50;;;;;;;;;;5097603;28;20360;-27
2023/06/21 10:14:32;;;;;;;11.90;5.75;;;;;;;;;;5097404;28;20077;-31
2023/06/21 10:16:58;;;;;;;10.18;5.70;;;;;;;;;;5097231;28;20027;-29
2023/06/21 10:19:25;;;;;;;8.90;5.85;;;;;;;;;;5097362;28;20035;-28
2023/06/21 10:22:10;;;;;;;9.15;6.38;;;;;;;;;;5079336;28;20461;-27
2023/06/21 10:24:50;;;;;;;11.60;7.22;;;;;;;;;;5097547;28;20054;-26
2023/06/21 10:27:17;;;;;;;16.02;5.93;;;;;;;;;;5097091;28;20031;-26
2023/06/21 10:29:45;;;;;;;11.30;6.55;;;;;;;;;;5097311;28;20103;-28
2023/06/21 10:32:11;;;;;;;10.50;5.30;;;;;;;;;;5097223;28;20020;-31
2023/06/21 10:34:40;;;;;;;9.43;6.40;;;;;;;;;;5097595;28;20035;-29
2023/06/21 10:37:27;;;;;;;7.05;6.18;;;;;;;;;;5096989;28;20383;-29
2023/06/21 10:39:55;;;;;;;13.35;6.03;;;;;;;;;;5096917;28;20110;-33
2023/06/21 10:42:22;;;;;;;8.23;6.07;;;;;;;;;;5097011;28;20355;-31
2023/06/21 10:44:49;;;;;;;9.60;6.35;;;;;;;;;;5096813;28;20346;-30
2023/06/21 10:47:16;;;;;;;8.63;6.53;;;;;;;;;;5096831;28;20073;-29
2023/06/21 10:49:42;;;;;;;13.50;6.28;;;;;;;;;;5097158;28;20024;-30
2023/06/21 10:52:09;;;;;;;12.45;5.95;;;;;;;;;;5096653;28;20028;-30
2023/06/21 10:54:35;;;;;;;10.02;5.80;;;;;;;;;;5096773;28;20119;-29
2023/06/21 10:57:01;;;;;;;9.23;5.93;;;;;;;;;;5096774;28;20116;-30
2023/06/21 10:59:28;;;;;;;8.13;5.78;;;;;;;;;;5096874;28;20032;-29
2023/06/21 11:01:54;;;;;;;9.05;5.65;;;;;;;;;;5096774;28;20030;-27
2023/06/21 11:04:20;;;;;;;11.60;6.05;;;;;;;;;;5096459;28;20054;-31
2023/06/21 11:06:46;;;;;;;9.45;6.03;;;;;;;;;;5096517;28;20024;-28
2023/06/21 11:09:16;;;;;;;9.75;5.90;;;;;;;;;;5096560;28;20027;-30
2023/06/21 11:11:53;;;;;;;9.68;7.53;;;;;;;;;;5096344;28;20027;-29
2023/06/21 11:14:23;;;;;;;7.65;6.70;;;;;;;;;;5096475;28;20058;-28
2023/06/21 11:16:49;;;;;;;6.90;6.30;;;;;;;;;;5095536;28;20490;-31
2023/06/21 11:19:15;;;;;;;7.63;6.93;;;;;;;;;;5096544;28;20031;-26
2023/06/21 11:21:47;;;;;;;11.38;6.05;;;;;;;;;;5095840;28;20340;-28
2023/06/21 11:24:17;;;;;;;9.73;6.30;;;;;;;;;;5096001;28;20080;-26
2023/06/21 11:26:53;;;;;;;13.73;6.97;;;;;;;;;;5096583;28;20028;-30
2023/06/21 11:29:19;;;;;;;9.00;5.68;;;;;;;;;;5078319;28;20520;-30
2023/06/21 11:31:46;;;;;;;8.77;5.75;;;;;;;;;;5097229;28;20027;-30
2023/06/21 11:34:31;;;;;;;13.50;6.85;;;;;;;;;;5095976;28;20099;-30
2023/06/21 11:36:57;;;;;;;12.50;6.47;;;;;;;;;;5096212;28;20177;-26
2023/06/21 11:39:23;;;;;;;12.20;6.88;;;;;;;;;;5096204;28;20024;-29
2023/06/21 11:41:51;;;;;;;9.30;6.70;;;;;;;;;;5096031;28;20061;-31
2023/06/21 11:44:22;;;;;;;7.68;6.97;;;;;;;;;;5095992;28;20396;-27
2023/06/21 11:46:49;;;;;;;11.70;7.10;;;;;;;;;;5096337;28;20369;-30
2023/06/21 11:49:15;;;;;;;12.05;7.80;;;;;;;;;;5095603;28;20077;-27
2023/06/21 11:52:10;;;;;;;12.73;6.88;;;;;;;;;;5095956;28;20032;-30
2023/06/21 11:54:37;;;;;;;11.85;7.45;;;;;;;;;;5074456;28;20062;-30
2023/06/21 11:57:05;;;;;;;8.93;6.38;;;;;;;;;;5095865;28;20027;-29
2023/06/21 11:59:36;;;;;;;12.02;6.97;;;;;;;;;;5095497;28;20020;-33
2023/06/21 12:02:20;;;;;;;11.70;6.85;;;;;;;;;;5095744;28;20020;-29
2023/06/21 12:04:46;;;;;;;13.23;6.15;;;;;;;;;;5095472;28;20051;-28
2023/06/21 12:07:13;;;;;;;7.05;6.15;;;;;;;;;;5095618;28;20020;-29
2023/06/21 12:09:40;;;;;;;12.55;6.22;;;;;;;;;;5095481;28;20016;-27
2023/06/21 12:12:10;;;;;;;12.30;7.38;;;;;;;;;;5095513;28;20405;-28
2023/06/21 12:14:36;;;;;;;12.50;6.28;;;;;;;;;;5095705;28;20051;-30
2023/06/21 12:17:03;;;;;;;15.18;6.72;;;;;;;;;;5095121;28;20039;-29
2023/06/21 12:19:31;;;;;;;7.53;6.60;;;;;;;;;;5095054;28;20024;-29
2023/06/21 12:22:05;;;;;;;10.50;5.80;;;;;;;;;;5095420;28;20107;-31
2023/06/21 12:24:32;;;;;;;18.30;7.13;;;;;;;;;;5095053;28;20108;-29
2023/06/21 12:27:00;;;;;;;17.70;6.70;;;;;;;;;;5094664;28;20020;-27
2023/06/21 12:29:27;;;;;;;10.18;6.43;;;;;;;;;;5094591;28;20145;-29
2023/06/21 12:31:56;;;;;;;7.45;5.80;;;;;;;;;;5094346;28;20096;-28
2023/06/21 12:34:24;;;;;;;10.75;6.35;;;;;;;;;;5094351;28;20024;-29
2023/06/21 12:36:51;;;;;;;16.02;6.28;;;;;;;;;;5095041;28;20027;-31
2023/06/21 12:39:18;;;;;;;22.27;6.68;;;;;;;;;;5094772;28;20382;-27
2023/06/21 12:41:44;;;;;;;13.93;5.90;;;;;;;;;;5094763;28;20028;-31
2023/06/21 12:44:18;;;;;;;9.95;6.22;;;;;;;;;;5094665;28;20031;-30
2023/06/21 12:46:45;;;;;;;11.88;5.97;;;;;;;;;;5095015;28;20023;-33
2023/06/21 12:49:13;;;;;;;12.00;5.65;;;;;;;;;;5094672;28;20028;-29
2023/06/21 12:51:39;;;;;;;13.00;5.45;;;;;;;;;;5094896;28;20050;-29
2023/06/21 12:54:05;;;;;;;14.73;7.35;;;;;;;;;;5094831;28;20103;-28
2023/06/21 12:56:32;;;;;;;7.57;6.40;;;;;;;;;;5094931;28;20024;-30
2023/06/21 12:58:59;;;;;;;13.57;5.90;;;;;;;;;;5076711;28;20404;-29
2023/06/21 13:01:25;;;;;;;13.27;6.82;;;;;;;;;;5076737;28;20030;-31
2023/06/21 13:03:56;;;;;;;9.23;6.82;;;;;;;;;;5094187;28;20411;-29
2023/06/21 13:06:22;;;;;;;12.30;7.63;;;;;;;;;;5094807;28;20095;-29
2023/06/21 13:08:48;;;;;;;8.85;6.47;;;;;;;;;;5094479;28;20035;-31
2023/06/21 13:11:15;;;;;;;12.02;6.25;;;;;;;;;;5094414;28;20066;-30
2023/06/21 13:13:41;;;;;;;15.13;7.40;;;;;;;;;;5094359;28;20480;-29
2023/06/21 13:16:10;;;;;;;7.82;6.78;;;;;;;;;;5094339;28;20031;-30
2023/06/21 13:18:36;;;;;;;15.43;7.25;;;;;;;;;;5094713;28;20055;-27
2023/06/21 13:21:02;;;;;;;15.05;6.53;;;;;;;;;;5094677;28;20024;-31
2023/06/21 13:23:29;;;;;;;6.75;5.75;;;;;;;;;;5094369;28;20028;-27
2023/06/21 13:25:55;;;;;;;7.90;6.82;;;;;;;;;;5076536;28;20046;-30
2023/06/21 13:28:23;;;;;;;12.55;6.47;;;;;;;;;;5094315;28;20020;-28
2023/06/21 13:30:49;;;;;;;7.68;5.47;;;;;;;;;;5094644;28;20021;-30
2023/06/21 13:33:16;;;;;;;11.07;5.78;;;;;;;;;;5094624;28;20054;-29
2023/06/21 13:35:42;;;;;;;9.07;5.38;;;;;;;;;;5094357;28;20022;-32
2023/06/21 13:38:09;;;;;;;11.60;6.70;;;;;;;;;;5094366;28;20024;-30
2023/06/21 13:40:35;;;;;;;9.43;6.07;;;;;;;;;;5094256;28;20035;-30
2023/06/21 13:43:02;;;;;;;14.85;6.00;;;;;;;;;;5094288;28;20023;-30
2023/06/21 13:45:28;;;;;;;8.70;6.63;;;;;;;;;;5098135;28;20035;-30
2023/06/21 13:47:54;;;;;;;10.32;5.78;;;;;;;;;;5097968;28;20028;-27
2023/06/21 13:50:21;;;;;;;6.65;5.47;;;;;;;;;;5097976;28;20052;-29
2023/06/21 13:52:47;;;;;;;7.65;5.28;;;;;;;;;;5080031;28;20340;-29
2023/06/21 13:55:13;;;;;;;8.35;5.47;;;;;;;;;;5098425;28;20405;-28
2023/06/21 13:57:42;;;;;;;12.32;6.78;;;;;;;;;;5097936;28;20047;-32
2023/06/21 14:00:16;;;;;;;8.93;5.53;;;;;;;;;;5098114;28;20065;-33
2023/06/21 14:02:42;;;;;;;9.77;5.88;;;;;;;;;;5097703;28;20024;-32
2023/06/21 14:05:09;;;;;;;7.60;5.07;;;;;;;;;;5098169;28;20024;-28
2023/06/21 14:07:39;;;;;;;7.43;5.38;;;;;;;;;;5097725;28;20048;-26
2023/06/21 14:10:06;;;;;;;5.90;5.40;;;;;;;;;;5098366;28;20024;-29
2023/06/21 14:12:33;;;;;;;13.82;6.47;;;;;;;;;;5079583;28;20020;-32
2023/06/21 14:14:59;;;;;;;14.32;5.93;;;;;;;;;;5097672;28;20024;-27
2023/06/21 14:17:25;;;;;;;11.57;6.00;;;;;;;;;;5097636;28;20024;-30
2023/06/21 14:19:51;;;;;;;17.73;6.22;;;;;;;;;;5097562;28;20032;-28
2023/06/21 14:22:18;;;;;;;9.55;5.72;;;;;;;;;;5097578;28;20086;-29
2023/06/21 14:24:44;;;;;;;9.95;5.65;;;;;;;;;;5079607;28;20397;-30
2023/06/21 14:27:10;;;;;;;12.05;6.18;;;;;;;;;;5097557;28;20028;-27
2023/06/21 14:29:36;;;;;;;7.53;6.00;;;;;;;;;;5097868;28;20062;-29
2023/06/21 14:32:02;;;;;;;10.98;5.40;;;;;;;;;;5097234;28;20016;-30
2023/06/21 14:34:29;;;;;;;5.38;4.75;;;;;;;;;;5097319;28;20072;-31
2023/06/21 14:36:55;;;;;;;5.88;5.30;;;;;;;;;;5097546;28;20020;-28
2023/06/21 14:39:21;;;;;;;7.55;6.70;;;;;;;;;;5097071;28;20039;-31